Terminal Aerodrome Forecast
Issued by NWS Portland, OR

Home | Current Version | Previous Version | Text Only | Print | Product List | Glossary On
Versions: 1 2 3 4 5 6 7 8 9 10 11 12 13 14 15 16 17 18 19 20 21 22 23 24 25 26 27 28 29 30 31 32 33 34 35 36 37 38 39 40 41 42 43 44 45 46 47 48 49
000
FTUS46 KPQR 271132
TAFAST
TAF
KAST 271132Z 2712/2812 28007KT P6SM -SHRAGS FEW007 BKN018 OVC035
     FM272000 06010KT P6SM -SHRAGS VCTS SCT015 BKN025 OVC035CB
     FM280300 06010KT P6SM SCT025 OVC045
     FM280800 06010KT P6SM BKN080=

USA.gov is the U.S. government's official web portal to all federal, state and local government web resources and services.